Woodlawn, VA

1:13 AM EST on February 10, 2016 (GMT -0500)
Twin County

Weather History for KHLX - January, 2014

Change the Weather History Date:

Friday, January 17, 2014

  Actual Average (KBLF) Record (KBLF)
Temperature  
Mean Temperature 34 °F 34 °F  
Max Temperature 42 °F 42 °F 63 °F (1990)
Min Temperature 24 °F 26 °F -18 °F (1982)
Degree Days  
Heating Degree Days 31 31  
Month to date heating degree days 527  
Since 1 July heating degree days 2292  
Cooling Degree Days 0 0  
Month to date cooling degree days 0  
Year to date cooling degree days 0  
Moisture  
Dew Point 16 °F    
Average Humidity 50    
Maximum Humidity 81    
Minimum Humidity 27    
Precipitation  
Precipitation 0.00 in 0.09 in 1.09 in (2006)
Month to date precipitation 1.60  
Year to date precipitation 1.60  
Snow  
Snow 0.00 in - - ()
Month to date snowfall  
Since 1 July snowfall  
Snow Depth -    
Sea Level Pressure  
Sea Level Pressure 29.85 in    
Wind  
Wind Speed 7 mph (SSW)    
Max Wind Speed 21 mph    
Max Gust Speed 31 mph    
Visibility 9 miles    
Events Snow    
T = Trace of Precipitation, MM = Missing Value Source: NWS Daily Summary

Daily Weather History Graph

Daily Weather History Graph

Search for Another Location

Airport or City:

Trip Planner

Search our weather history database for the weather conditions in past years. The results will help you decide how hot, cold, wet, or windy it might be!

Date:

Astronomy

Jan. 17, 2014 Rise Set
Actual Time 7:34 AM EST 5:32 PM EST
Civil Twilight 7:06 AM EST 6:00 PM EST
Nautical Twilight 6:34 AM EST 6:32 PM EST
Astronomical Twilight 6:03 AM EST 7:03 PM EST
Moon 7:14 PM EST (1/17) 8:04 AM EST (1/17)
Length of Visible Light 10h 54m
Length of Day
9h 58m
Full, 98% of the Moon is Illuminated
Jan 17
Full
Jan 24
Last Quarter
Jan 30
New
Feb 6
First Quarter
Feb 14
Full

Hourly Weather History & Observations

Time (EST) Temp. Windchill Dew Point Humidity Pressure Visibility Wind Dir Wind Speed Gust Speed Precip Events Conditions
12:15 AM 28.4 °F 23.3 °F 10.4 °F 47% 29.90 in 10.0 mi SSW 4.6 mph - N/A   Clear
12:35 AM 28.4 °F 23.3 °F 10.4 °F 47% 29.89 in 10.0 mi SSW 4.6 mph - N/A   Clear
12:55 AM 28.4 °F 21.2 °F 10.4 °F 47% 29.88 in 10.0 mi SSW 6.9 mph - N/A   Clear
1:15 AM 28.4 °F 21.2 °F 10.4 °F 47% 29.89 in 10.0 mi SSW 6.9 mph - N/A   Clear
1:35 AM 28.4 °F 22.2 °F 10.4 °F 47% 29.88 in 10.0 mi SSW 5.8 mph - N/A   Clear
1:55 AM 28.4 °F 22.2 °F 10.4 °F 47% 29.88 in 10.0 mi SW 5.8 mph - N/A   Clear
2:15 AM 30.2 °F 24.3 °F 12.2 °F 47% 29.87 in 10.0 mi SSW 5.8 mph - N/A   Scattered Clouds
2:35 AM 30.2 °F 25.4 °F 10.4 °F 44% 29.87 in 10.0 mi SSW 4.6 mph - N/A   Clear
2:55 AM 30.2 °F 25.4 °F 10.4 °F 44% 29.87 in 10.0 mi SSW 4.6 mph - N/A   Clear
3:15 AM 28.4 °F 19.7 °F 12.2 °F 51% 29.87 in 10.0 mi SSW 9.2 mph - N/A   Clear
3:35 AM 30.2 °F 22.6 °F 12.2 °F 47% 29.86 in 10.0 mi South 8.1 mph - N/A   Clear
3:55 AM 28.4 °F 22.2 °F 12.2 °F 51% 29.85 in 10.0 mi South 5.8 mph - N/A   Clear
4:15 AM 30.2 °F 24.3 °F 12.2 °F 47% 29.86 in 10.0 mi South 5.8 mph - N/A   Clear
4:35 AM 26.6 °F 20.0 °F 12.2 °F 55% 29.85 in 10.0 mi SE 5.8 mph - N/A   Clear
4:55 AM 28.4 °F 23.3 °F 12.2 °F 51% 29.87 in 10.0 mi SSW 4.6 mph - N/A   Clear
5:15 AM 28.4 °F - 14.0 °F 55% 29.85 in 10.0 mi Calm Calm - N/A   Clear
5:35 AM 28.4 °F 23.3 °F 14.0 °F 55% 29.85 in 10.0 mi South 4.6 mph - N/A   Mostly Cloudy
5:55 AM 28.4 °F 23.3 °F 12.2 °F 51% 29.85 in 10.0 mi South 4.6 mph - N/A   Scattered Clouds
6:15 AM 28.4 °F 21.2 °F 12.2 °F 51% 29.86 in 10.0 mi SSW 6.9 mph - N/A   Scattered Clouds
6:35 AM 28.4 °F 23.3 °F 12.2 °F 51% 29.87 in 10.0 mi West 4.6 mph - N/A   Mostly Cloudy
6:55 AM 28.4 °F - 12.2 °F 51% 29.85 in 10.0 mi Calm Calm - N/A   Mostly Cloudy
7:15 AM 28.4 °F 21.2 °F 14.0 °F 55% 29.86 in 10.0 mi SSE 6.9 mph - N/A   Clear
7:35 AM 28.4 °F 20.4 °F 12.2 °F 51% 29.86 in 10.0 mi SSE 8.1 mph - N/A   Clear
7:55 AM 28.4 °F 23.3 °F 12.2 °F 51% 29.87 in 10.0 mi South 4.6 mph - N/A   Clear
8:15 AM 28.4 °F - 12.2 °F 51% 29.88 in 10.0 mi Calm Calm - N/A   Clear
8:35 AM 30.2 °F - 12.2 °F 47% 29.88 in 10.0 mi Calm Calm - N/A   Clear
8:55 AM 30.2 °F - 12.2 °F 47% 29.89 in 10.0 mi Calm Calm - N/A   Clear
9:15 AM 30.2 °F 26.7 °F 12.2 °F 47% 29.89 in 10.0 mi SSW 3.5 mph - N/A   Clear
9:35 AM 33.8 °F - 14.0 °F 44% 29.89 in 10.0 mi Calm Calm - N/A   Clear
9:55 AM 35.6 °F 32.8 °F 15.8 °F 44% 29.88 in 10.0 mi South 3.5 mph - N/A   Clear
10:15 AM 37.4 °F 32.1 °F 15.8 °F 41% 29.89 in 10.0 mi SSW 6.9 mph - N/A   Clear
10:35 AM 37.4 °F 30.8 °F 17.6 °F 45% 29.89 in 10.0 mi SW 9.2 mph - N/A   Clear
10:55 AM 39.2 °F 33.0 °F 17.6 °F 42% 29.88 in 10.0 mi SW 9.2 mph - N/A   Clear
11:15 AM 39.2 °F 34.2 °F 17.6 °F 42% 29.88 in 10.0 mi SW 6.9 mph - N/A   Clear
11:35 AM 41.0 °F 34.7 °F 15.8 °F 36% 29.87 in 10.0 mi SSW 10.4 mph - N/A   Clear
11:55 AM 41.0 °F 33.5 °F 14.0 °F 33% 29.85 in 10.0 mi SW 13.8 mph 17.3 mph N/A   Clear
12:15 PM 42.8 °F 35.4 °F 12.2 °F 29% 29.83 in 10.0 mi SW 15.0 mph 20.7 mph N/A   Clear
12:35 PM 42.8 °F 35.1 °F 10.4 °F 27% 29.81 in 10.0 mi SW 16.1 mph 20.7 mph N/A   Scattered Clouds
12:55 PM 42.8 °F 38.6 °F 15.8 °F 34% 29.80 in 10.0 mi South 6.9 mph - N/A   Scattered Clouds
1:15 PM 42.8 °F 38.0 °F 15.8 °F 34% 29.79 in 10.0 mi SSE 8.1 mph - N/A   Scattered Clouds
1:35 PM 42.8 °F 37.5 °F 15.8 °F 34% 29.78 in 10.0 mi South 9.2 mph - N/A   Scattered Clouds
1:55 PM 42.8 °F 38.0 °F 12.2 °F 29% 29.77 in 10.0 mi South 8.1 mph - N/A   Clear
2:15 PM 41.0 °F 35.2 °F 12.2 °F 31% 29.77 in 10.0 mi South 9.2 mph - N/A   Clear
2:35 PM 41.0 °F 34.7 °F 15.8 °F 36% 29.77 in 10.0 mi SE 10.4 mph - N/A   Clear
2:55 PM 41.0 °F 36.4 °F 15.8 °F 36% 29.77 in 10.0 mi South 6.9 mph 16.1 mph N/A   Clear
3:15 PM 41.0 °F 35.2 °F 15.8 °F 36% 29.77 in 10.0 mi South 9.2 mph 16.1 mph N/A   Clear
3:35 PM 39.2 °F 32.0 °F 15.8 °F 39% 29.77 in 10.0 mi SSE 11.5 mph 18.4 mph N/A   Clear
3:55 PM 37.4 °F 31.4 °F 15.8 °F 41% 29.78 in 10.0 mi South 8.1 mph - N/A   Clear
4:15 PM 37.4 °F 32.1 °F 15.8 °F 41% 29.79 in 10.0 mi South 6.9 mph - N/A   Mostly Cloudy
4:35 PM 37.4 °F 32.1 °F 17.6 °F 45% 29.79 in 10.0 mi South 6.9 mph - N/A   Overcast
4:55 PM 37.4 °F 32.8 °F 17.6 °F 45% 29.79 in 10.0 mi South 5.8 mph - N/A   Overcast
5:15 PM 37.4 °F 33.8 °F 17.6 °F 45% 29.80 in 10.0 mi South 4.6 mph - N/A   Overcast
5:35 PM 37.4 °F 32.8 °F 17.6 °F 45% 29.81 in 10.0 mi South 5.8 mph - N/A   Overcast
5:55 PM 37.4 °F 29.3 °F 21.2 °F 52% 29.81 in 10.0 mi SSW 12.7 mph 17.3 mph N/A   Mostly Cloudy
6:15 PM 35.6 °F 29.2 °F 24.8 °F 65% 29.82 in 10.0 mi SW 8.1 mph - N/A   Scattered Clouds
6:35 PM 35.6 °F 29.2 °F 24.8 °F 65% 29.83 in 10.0 mi West 8.1 mph - N/A Snow Light Snow
6:55 PM 33.8 °F 25.8 °F 28.4 °F 81% 29.84 in 0.8 mi West 10.4 mph - N/A Snow Light Snow
7:15 PM 32.0 °F 24.2 °F 26.6 °F 80% 29.85 in 0.2 mi West 9.2 mph 16.1 mph N/A Snow Snow
7:35 PM 32.0 °F 27.5 °F 26.6 °F 80% 29.84 in 4.0 mi SW 4.6 mph - N/A Snow Light Snow
7:55 PM 32.0 °F 24.8 °F 26.6 °F 80% 29.85 in 2.5 mi SW 8.1 mph - N/A Snow Light Snow
8:15 PM 32.0 °F 23.0 °F 24.8 °F 75% 29.84 in 10.0 mi WNW 11.5 mph 17.3 mph N/A Snow Light Snow
8:35 PM 32.0 °F 23.6 °F 19.4 °F 60% 29.85 in 10.0 mi West 10.4 mph 18.4 mph N/A   Mostly Cloudy
8:55 PM 32.0 °F 23.0 °F 19.4 °F 60% 29.85 in 10.0 mi WNW 11.5 mph 23.0 mph N/A   Overcast
9:15 PM 30.2 °F 19.8 °F 21.2 °F 69% 29.86 in 7.0 mi WNW 13.8 mph - N/A   Overcast
9:35 PM 30.2 °F 18.9 °F 21.2 °F 69% 29.86 in 10.0 mi WNW 16.1 mph 21.9 mph N/A Snow Light Snow
9:55 PM 28.4 °F 17.5 °F 15.8 °F 59% 29.87 in 2.5 mi West 13.8 mph 31.1 mph N/A Snow Light Snow
10:15 PM 28.4 °F 18.0 °F 15.8 °F 59% 29.87 in 10.0 mi West 12.7 mph 21.9 mph N/A   Mostly Cloudy
10:35 PM 26.6 °F 15.7 °F 15.8 °F 64% 29.87 in 10.0 mi West 12.7 mph 19.6 mph N/A   Scattered Clouds
10:55 PM 26.6 °F 12.7 °F 17.6 °F 69% 29.87 in 10.0 mi WNW 20.7 mph 27.6 mph N/A   Scattered Clouds
11:15 PM 26.6 °F 15.2 °F 17.6 °F 69% 29.86 in 10.0 mi WNW 13.8 mph 18.4 mph N/A   Mostly Cloudy
11:35 PM 26.6 °F 17.5 °F 14.0 °F 59% 29.85 in 10.0 mi West 9.2 mph 17.3 mph N/A   Scattered Clouds
11:55 PM 24.8 °F 11.9 °F 14.0 °F 64% 29.85 in 10.0 mi WNW 16.1 mph 23.0 mph N/A   Clear